sensor_id;sensor_type;location;lat;lon;timestamp;temperature;humidity
1377;DHT22;682;52.502;13.488;2023-08-06T00:02:19;18.60;1.00
1377;DHT22;682;52.502;13.488;2023-08-06T00:04:46;18.60;1.00
1377;DHT22;682;52.502;13.488;2023-08-06T00:07:14;18.60;1.00
1377;DHT22;682;52.502;13.488;2023-08-06T00:09:41;18.60;1.00
1377;DHT22;682;52.502;13.488;2023-08-06T00:12:10;18.60;1.00
1377;DHT22;682;52.502;13.488;2023-08-06T00:14:39;18.60;1.00
1377;DHT22;682;52.502;13.488;2023-08-06T00:17:06;18.70;1.00
1377;DHT22;682;52.502;13.488;2023-08-06T00:19:33;18.70;1.00
1377;DHT22;682;52.502;13.488;2023-08-06T00:22:00;18.70;1.00
1377;DHT22;682;52.502;13.488;2023-08-06T00:24:27;18.70;1.00
1377;DHT22;682;52.502;13.488;2023-08-06T00:26:54;18.70;1.00
1377;DHT22;682;52.502;13.488;2023-08-06T00:29:23;18.70;1.00
1377;DHT22;682;52.502;13.488;2023-08-06T00:31:51;18.70;1.00
1377;DHT22;682;52.502;13.488;2023-08-06T00:34:18;18.70;1.00
1377;DHT22;682;52.502;13.488;2023-08-06T00:36:45;18.50;1.00
1377;DHT22;682;52.502;13.488;2023-08-06T00:39:15;18.50;1.00
1377;DHT22;682;52.502;13.488;2023-08-06T00:41:42;18.50;1.00
1377;DHT22;682;52.502;13.488;2023-08-06T00:44:09;18.50;1.00
1377;DHT22;682;52.502;13.488;2023-08-06T00:46:37;18.40;1.00
1377;DHT22;682;52.502;13.488;2023-08-06T00:49:05;18.40;1.00
1377;DHT22;682;52.502;13.488;2023-08-06T00:51:32;18.30;1.00
1377;DHT22;682;52.502;13.488;2023-08-06T00:54:01;18.30;1.00
1377;DHT22;682;52.502;13.488;2023-08-06T00:56:29;18.30;1.00
1377;DHT22;682;52.502;13.488;2023-08-06T00:58:56;18.30;1.00
1377;DHT22;682;52.502;13.488;2023-08-06T01:01:23;18.20;1.00
1377;DHT22;682;52.502;13.488;2023-08-06T01:03:53;18.20;1.00
1377;DHT22;682;52.502;13.488;2023-08-06T01:06:24;18.20;1.00
1377;DHT22;682;52.502;13.488;2023-08-06T01:09:00;18.10;1.00
1377;DHT22;682;52.502;13.488;2023-08-06T01:11:38;18.00;1.00
1377;DHT22;682;52.502;13.488;2023-08-06T01:14:18;17.90;1.00
1377;DHT22;682;52.502;13.488;2023-08-06T01:16:48;17.80;1.00
1377;DHT22;682;52.502;13.488;2023-08-06T01:19:18;17.80;1.00
1377;DHT22;682;52.502;13.488;2023-08-06T01:21:46;17.90;1.00
1377;DHT22;682;52.502;13.488;2023-08-06T01:24:14;17.90;1.00
1377;DHT22;682;52.502;13.488;2023-08-06T01:26:45;17.90;1.00
1377;DHT22;682;52.502;13.488;2023-08-06T01:29:19;17.90;1.00
1377;DHT22;682;52.502;13.488;2023-08-06T01:31:50;17.90;1.00
1377;DHT22;682;52.502;13.488;2023-08-06T01:34:21;17.90;1.00
1377;DHT22;682;52.502;13.488;2023-08-06T01:36:50;17.70;1.00
1377;DHT22;682;52.502;13.488;2023-08-06T01:39:18;17.70;1.00
1377;DHT22;682;52.502;13.488;2023-08-06T01:41:46;17.80;1.00
1377;DHT22;682;52.502;13.488;2023-08-06T01:44:14;17.80;1.00
1377;DHT22;682;52.502;13.488;2023-08-06T01:46:41;17.80;1.00
1377;DHT22;682;52.502;13.488;2023-08-06T01:49:08;17.80;1.00
1377;DHT22;682;52.502;13.488;2023-08-06T01:51:35;17.70;1.00
1377;DHT22;682;52.502;13.488;2023-08-06T01:54:03;17.70;1.00
1377;DHT22;682;52.502;13.488;2023-08-06T01:56:30;17.50;1.00
1377;DHT22;682;52.502;13.488;2023-08-06T01:58:58;17.50;1.00
1377;DHT22;682;52.502;13.488;2023-08-06T02:01:25;17.50;1.00
1377;DHT22;682;52.502;13.488;2023-08-06T02:03:52;17.50;1.00
1377;DHT22;682;52.502;13.488;2023-08-06T02:06:19;17.40;1.00
1377;DHT22;682;52.502;13.488;2023-08-06T02:08:46;17.40;1.00
1377;DHT22;682;52.502;13.488;2023-08-06T02:11:14;17.40;1.00
1377;DHT22;682;52.502;13.488;2023-08-06T02:13:41;17.40;1.00
1377;DHT22;682;52.502;13.488;2023-08-06T02:16:08;17.30;1.00
1377;DHT22;682;52.502;13.488;2023-08-06T02:18:35;17.30;1.00
1377;DHT22;682;52.502;13.488;2023-08-06T02:21:02;17.30;1.00
1377;DHT22;682;52.502;13.488;2023-08-06T02:23:29;17.30;1.00
1377;DHT22;682;52.502;13.488;2023-08-06T02:25:58;17.30;1.00
1377;DHT22;682;52.502;13.488;2023-08-06T02:28:26;17.30;1.00
1377;DHT22;682;52.502;13.488;2023-08-06T02:30:54;17.20;1.00
1377;DHT22;682;52.502;13.488;2023-08-06T02:33:21;17.20;1.00
1377;DHT22;682;52.502;13.488;2023-08-06T02:35:48;17.20;1.00
1377;DHT22;682;52.502;13.488;2023-08-06T02:38:15;17.10;1.00
1377;DHT22;682;52.502;13.488;2023-08-06T02:40:45;17.20;1.00
1377;DHT22;682;52.502;13.488;2023-08-06T02:43:12;17.20;1.00
1377;DHT22;682;52.502;13.488;2023-08-06T02:45:41;17.20;1.00
1377;DHT22;682;52.502;13.488;2023-08-06T02:48:08;17.10;1.00
1377;DHT22;682;52.502;13.488;2023-08-06T02:50:39;17.10;1.00
1377;DHT22;682;52.502;13.488;2023-08-06T02:53:06;17.10;1.00
1377;DHT22;682;52.502;13.488;2023-08-06T02:55:33;17.20;1.00
1377;DHT22;682;52.502;13.488;2023-08-06T02:58:01;17.20;1.00
1377;DHT22;682;52.502;13.488;2023-08-06T03:00:28;17.10;1.00
1377;DHT22;682;52.502;13.488;2023-08-06T03:02:57;17.10;1.00
1377;DHT22;682;52.502;13.488;2023-08-06T03:05:24;17.10;1.00
1377;DHT22;682;52.502;13.488;2023-08-06T03:07:51;17.10;1.00
1377;DHT22;682;52.502;13.488;2023-08-06T03:10:18;17.10;1.00
1377;DHT22;682;52.502;13.488;2023-08-06T03:12:45;17.10;1.00
1377;DHT22;682;52.502;13.488;2023-08-06T03:15:12;17.10;1.00
1377;DHT22;682;52.502;13.488;2023-08-06T03:17:39;17.10;1.00
1377;DHT22;682;52.502;13.488;2023-08-06T03:20:10;17.10;1.00
1377;DHT22;682;52.502;13.488;2023-08-06T03:22:37;17.10;1.00
1377;DHT22;682;52.502;13.488;2023-08-06T03:25:07;17.10;1.00
1377;DHT22;682;52.502;13.488;2023-08-06T03:27:34;17.10;1.00
1377;DHT22;682;52.502;13.488;2023-08-06T03:30:03;17.10;1.00
1377;DHT22;682;52.502;13.488;2023-08-06T03:32:30;17.10;1.00
1377;DHT22;682;52.502;13.488;2023-08-06T03:34:57;17.10;1.00
1377;DHT22;682;52.502;13.488;2023-08-06T03:37:25;17.10;1.00
1377;DHT22;682;52.502;13.488;2023-08-06T03:39:52;17.20;1.00
1377;DHT22;682;52.502;13.488;2023-08-06T03:42:19;17.10;1.00
1377;DHT22;682;52.502;13.488;2023-08-06T03:44:46;17.10;1.00
1377;DHT22;682;52.502;13.488;2023-08-06T03:47:13;17.10;1.00
1377;DHT22;682;52.502;13.488;2023-08-06T03:49:40;17.10;1.00
1377;DHT22;682;52.502;13.488;2023-08-06T03:52:08;17.10;1.00
1377;DHT22;682;52.502;13.488;2023-08-06T03:54:37;17.10;1.00
1377;DHT22;682;52.502;13.488;2023-08-06T03:57:05;17.10;1.00
1377;DHT22;682;52.502;13.488;2023-08-06T03:59:32;17.10;1.00
1377;DHT22;682;52.502;13.488;2023-08-06T04:01:59;17.00;1.00
1377;DHT22;682;52.502;13.488;2023-08-06T04:04:26;17.00;1.00
1377;DHT22;682;52.502;13.488;2023-08-06T04:06:53;17.00;1.00
1377;DHT22;682;52.502;13.488;2023-08-06T04:09:20;17.00;1.00
1377;DHT22;682;52.502;13.488;2023-08-06T04:11:48;17.00;1.00
1377;DHT22;682;52.502;13.488;2023-08-06T04:14:15;17.00;1.00
1377;DHT22;682;52.502;13.488;2023-08-06T04:16:42;17.00;1.00
1377;DHT22;682;52.502;13.488;2023-08-06T04:19:09;17.00;1.00
1377;DHT22;682;52.502;13.488;2023-08-06T04:21:36;17.00;1.00
1377;DHT22;682;52.502;13.488;2023-08-06T04:24:04;17.00;1.00
1377;DHT22;682;52.502;13.488;2023-08-06T04:26:31;17.00;1.00
1377;DHT22;682;52.502;13.488;2023-08-06T04:28:59;16.90;1.00
1377;DHT22;682;52.502;13.488;2023-08-06T04:31:26;17.00;1.00
1377;DHT22;682;52.502;13.488;2023-08-06T04:33:53;17.00;1.00
1377;DHT22;682;52.502;13.488;2023-08-06T04:36:20;17.00;1.00
1377;DHT22;682;52.502;13.488;2023-08-06T04:38:50;17.00;1.00
1377;DHT22;682;52.502;13.488;2023-08-06T04:41:17;17.00;1.00
1377;DHT22;682;52.502;13.488;2023-08-06T04:43:44;17.00;1.00
1377;DHT22;682;52.502;13.488;2023-08-06T04:46:12;17.00;1.00
1377;DHT22;682;52.502;13.488;2023-08-06T04:48:39;17.00;1.00
1377;DHT22;682;52.502;13.488;2023-08-06T04:51:06;17.00;1.00
1377;DHT22;682;52.502;13.488;2023-08-06T04:53:33;17.10;1.00
1377;DHT22;682;52.502;13.488;2023-08-06T04:56:00;17.00;1.00
1377;DHT22;682;52.502;13.488;2023-08-06T04:58:27;17.00;1.00
1377;DHT22;682;52.502;13.488;2023-08-06T05:00:54;17.10;1.00
1377;DHT22;682;52.502;13.488;2023-08-06T05:03:23;17.10;1.00
1377;DHT22;682;52.502;13.488;2023-08-06T05:05:50;17.10;1.00
1377;DHT22;682;52.502;13.488;2023-08-06T05:08:17;17.20;1.00
1377;DHT22;682;52.502;13.488;2023-08-06T05:10:45;17.20;1.00
1377;DHT22;682;52.502;13.488;2023-08-06T05:13:13;17.20;1.00
1377;DHT22;682;52.502;13.488;2023-08-06T05:15:41;17.20;1.00
1377;DHT22;682;52.502;13.488;2023-08-06T05:18:08;17.20;1.00
1377;DHT22;682;52.502;13.488;2023-08-06T05:20:37;17.20;1.00
1377;DHT22;682;52.502;13.488;2023-08-06T05:23:04;17.20;1.00
1377;DHT22;682;52.502;13.488;2023-08-06T05:25:31;17.20;1.00
1377;DHT22;682;52.502;13.488;2023-08-06T05:27:58;17.20;1.00
1377;DHT22;682;52.502;13.488;2023-08-06T05:30:27;17.20;1.00
1377;DHT22;682;52.502;13.488;2023-08-06T05:32:54;17.20;1.00
1377;DHT22;682;52.502;13.488;2023-08-06T05:35:21;17.20;1.00
1377;DHT22;682;52.502;13.488;2023-08-06T05:37:50;17.20;1.00
1377;DHT22;682;52.502;13.488;2023-08-06T05:40:17;17.30;1.00
1377;DHT22;682;52.502;13.488;2023-08-06T05:42:44;17.30;1.00
1377;DHT22;682;52.502;13.488;2023-08-06T05:45:11;17.40;1.00
1377;DHT22;682;52.502;13.488;2023-08-06T05:47:38;17.40;1.00
1377;DHT22;682;52.502;13.488;2023-08-06T05:50:06;17.40;1.00
1377;DHT22;682;52.502;13.488;2023-08-06T05:52:37;17.50;1.00
1377;DHT22;682;52.502;13.488;2023-08-06T05:55:07;17.50;1.00
1377;DHT22;682;52.502;13.488;2023-08-06T05:57:34;17.50;1.00
1377;DHT22;682;52.502;13.488;2023-08-06T06:00:01;17.50;1.00
1377;DHT22;682;52.502;13.488;2023-08-06T06:02:31;17.50;1.00
1377;DHT22;682;52.502;13.488;2023-08-06T06:04:58;17.50;1.00
1377;DHT22;682;52.502;13.488;2023-08-06T06:07:25;17.50;1.00
1377;DHT22;682;52.502;13.488;2023-08-06T06:09:52;17.50;1.00
1377;DHT22;682;52.502;13.488;2023-08-06T06:12:20;17.50;1.00
1377;DHT22;682;52.502;13.488;2023-08-06T06:14:48;17.60;1.00
1377;DHT22;682;52.502;13.488;2023-08-06T06:17:15;17.60;1.00
1377;DHT22;682;52.502;13.488;2023-08-06T06:19:42;17.70;1.00
1377;DHT22;682;52.502;13.488;2023-08-06T06:22:09;17.70;1.00
1377;DHT22;682;52.502;13.488;2023-08-06T06:24:36;17.80;1.00
1377;DHT22;682;52.502;13.488;2023-08-06T06:27:04;17.80;1.00
1377;DHT22;682;52.502;13.488;2023-08-06T06:29:32;17.70;1.00
1377;DHT22;682;52.502;13.488;2023-08-06T06:31:59;17.70;1.00
1377;DHT22;682;52.502;13.488;2023-08-06T06:34:26;17.70;1.00
1377;DHT22;682;52.502;13.488;2023-08-06T06:36:53;17.70;1.00
1377;DHT22;682;52.502;13.488;2023-08-06T06:39:21;17.80;1.00
1377;DHT22;682;52.502;13.488;2023-08-06T06:41:48;17.90;1.00
1377;DHT22;682;52.502;13.488;2023-08-06T06:44:15;17.90;1.00
1377;DHT22;682;52.502;13.488;2023-08-06T06:46:43;17.90;1.00
1377;DHT22;682;52.502;13.488;2023-08-06T06:49:10;17.80;1.00
1377;DHT22;682;52.502;13.488;2023-08-06T06:51:37;17.90;1.00
1377;DHT22;682;52.502;13.488;2023-08-06T06:54:04;17.90;1.00
1377;DHT22;682;52.502;13.488;2023-08-06T06:56:31;17.90;1.00
1377;DHT22;682;52.502;13.488;2023-08-06T06:58:58;18.00;1.00
1377;DHT22;682;52.502;13.488;2023-08-06T07:01:25;18.00;1.00
1377;DHT22;682;52.502;13.488;2023-08-06T07:03:53;18.10;1.00
1377;DHT22;682;52.502;13.488;2023-08-06T07:06:20;18.10;1.00
1377;DHT22;682;52.502;13.488;2023-08-06T07:08:47;18.00;1.00
1377;DHT22;682;52.502;13.488;2023-08-06T07:11:14;18.00;1.00
1377;DHT22;682;52.502;13.488;2023-08-06T07:13:41;18.10;1.00
1377;DHT22;682;52.502;13.488;2023-08-06T07:16:08;18.10;1.00
1377;DHT22;682;52.502;13.488;2023-08-06T07:18:35;18.20;1.00
1377;DHT22;682;52.502;13.488;2023-08-06T07:21:03;18.30;1.00
1377;DHT22;682;52.502;13.488;2023-08-06T07:23:30;18.40;1.00
1377;DHT22;682;52.502;13.488;2023-08-06T07:25:57;18.40;1.00
1377;DHT22;682;52.502;13.488;2023-08-06T07:28:25;18.40;1.00
1377;DHT22;682;52.502;13.488;2023-08-06T07:30:52;18.40;1.00
1377;DHT22;682;52.502;13.488;2023-08-06T07:33:19;18.50;1.00
1377;DHT22;682;52.502;13.488;2023-08-06T07:35:46;18.50;1.00
1377;DHT22;682;52.502;13.488;2023-08-06T07:38:14;18.50;1.00
1377;DHT22;682;52.502;13.488;2023-08-06T07:40:42;18.50;1.00
1377;DHT22;682;52.502;13.488;2023-08-06T07:43:09;18.50;1.00
1377;DHT22;682;52.502;13.488;2023-08-06T07:45:36;18.50;1.00
1377;DHT22;682;52.502;13.488;2023-08-06T07:48:03;18.40;1.00
1377;DHT22;682;52.502;13.488;2023-08-06T07:50:31;18.40;1.00
1377;DHT22;682;52.502;13.488;2023-08-06T07:52:58;18.40;1.00
1377;DHT22;682;52.502;13.488;2023-08-06T07:55:26;18.40;1.00
1377;DHT22;682;52.502;13.488;2023-08-06T07:57:54;18.40;1.00
1377;DHT22;682;52.502;13.488;2023-08-06T08:00:21;18.40;1.00
1377;DHT22;682;52.502;13.488;2023-08-06T08:02:47;18.40;1.00
1377;DHT22;682;52.502;13.488;2023-08-06T08:05:14;18.40;1.00
1377;DHT22;682;52.502;13.488;2023-08-06T08:07:41;18.50;1.00
1377;DHT22;682;52.502;13.488;2023-08-06T08:10:09;18.40;1.00
1377;DHT22;682;52.502;13.488;2023-08-06T08:12:38;18.50;1.00
1377;DHT22;682;52.502;13.488;2023-08-06T08:15:06;18.40;1.00
1377;DHT22;682;52.502;13.488;2023-08-06T08:17:33;18.40;1.00
1377;DHT22;682;52.502;13.488;2023-08-06T08:20:00;18.40;1.00
1377;DHT22;682;52.502;13.488;2023-08-06T08:22:27;18.40;1.00
1377;DHT22;682;52.502;13.488;2023-08-06T08:24:54;18.40;1.00
1377;DHT22;682;52.502;13.488;2023-08-06T08:27:21;18.40;1.00
1377;DHT22;682;52.502;13.488;2023-08-06T08:29:49;18.40;1.00
1377;DHT22;682;52.502;13.488;2023-08-06T08:32:16;18.40;1.00
1377;DHT22;682;52.502;13.488;2023-08-06T08:34:43;18.50;1.00
1377;DHT22;682;52.502;13.488;2023-08-06T08:37:10;18.50;1.00
1377;DHT22;682;52.502;13.488;2023-08-06T08:39:37;18.40;1.00
1377;DHT22;682;52.502;13.488;2023-08-06T08:42:05;18.40;1.00
1377;DHT22;682;52.502;13.488;2023-08-06T08:44:32;18.40;1.00
1377;DHT22;682;52.502;13.488;2023-08-06T08:47:03;18.50;1.00
1377;DHT22;682;52.502;13.488;2023-08-06T08:49:31;18.50;1.00
1377;DHT22;682;52.502;13.488;2023-08-06T08:51:59;18.50;1.00
1377;DHT22;682;52.502;13.488;2023-08-06T08:54:26;18.50;1.00
1377;DHT22;682;52.502;13.488;2023-08-06T08:56:53;18.60;1.00
1377;DHT22;682;52.502;13.488;2023-08-06T08:59:22;18.60;1.00
1377;DHT22;682;52.502;13.488;2023-08-06T09:01:49;18.70;1.00
1377;DHT22;682;52.502;13.488;2023-08-06T09:04:18;18.80;1.00
1377;DHT22;682;52.502;13.488;2023-08-06T09:06:48;18.80;1.00
1377;DHT22;682;52.502;13.488;2023-08-06T09:09:22;18.80;1.00
1377;DHT22;682;52.502;13.488;2023-08-06T09:11:50;18.90;1.00
1377;DHT22;682;52.502;13.488;2023-08-06T09:14:18;19.00;1.00
1377;DHT22;682;52.502;13.488;2023-08-06T09:16:45;19.10;1.00
1377;DHT22;682;52.502;13.488;2023-08-06T09:19:13;19.10;1.00
1377;DHT22;682;52.502;13.488;2023-08-06T09:21:42;19.00;1.00
1377;DHT22;682;52.502;13.488;2023-08-06T09:24:10;19.00;1.00
1377;DHT22;682;52.502;13.488;2023-08-06T09:26:40;19.10;1.00
1377;DHT22;682;52.502;13.488;2023-08-06T09:29:08;19.20;1.00
1377;DHT22;682;52.502;13.488;2023-08-06T09:31:40;19.30;1.00
1377;DHT22;682;52.502;13.488;2023-08-06T09:34:11;19.20;1.00
1377;DHT22;682;52.502;13.488;2023-08-06T09:36:45;19.00;1.00
1377;DHT22;682;52.502;13.488;2023-08-06T09:39:13;19.00;1.00
1377;DHT22;682;52.502;13.488;2023-08-06T09:41:41;18.80;1.00
1377;DHT22;682;52.502;13.488;2023-08-06T09:44:17;18.80;1.00
1377;DHT22;682;52.502;13.488;2023-08-06T09:46:47;18.80;1.00
1377;DHT22;682;52.502;13.488;2023-08-06T09:49:15;18.80;1.00
1377;DHT22;682;52.502;13.488;2023-08-06T09:51:43;18.70;1.00
1377;DHT22;682;52.502;13.488;2023-08-06T09:54:12;18.60;1.00
1377;DHT22;682;52.502;13.488;2023-08-06T09:56:40;18.70;1.00
1377;DHT22;682;52.502;13.488;2023-08-06T09:59:09;18.80;1.00
1377;DHT22;682;52.502;13.488;2023-08-06T10:01:36;18.90;1.00
1377;DHT22;682;52.502;13.488;2023-08-06T10:04:05;19.00;1.00
1377;DHT22;682;52.502;13.488;2023-08-06T10:06:34;19.20;1.00
1377;DHT22;682;52.502;13.488;2023-08-06T10:09:03;19.20;1.00
1377;DHT22;682;52.502;13.488;2023-08-06T10:11:30;19.30;1.00
1377;DHT22;682;52.502;13.488;2023-08-06T10:14:02;19.30;1.00
1377;DHT22;682;52.502;13.488;2023-08-06T10:16:31;19.30;1.00
1377;DHT22;682;52.502;13.488;2023-08-06T10:19:00;19.30;1.00
1377;DHT22;682;52.502;13.488;2023-08-06T10:21:27;19.30;1.00
1377;DHT22;682;52.502;13.488;2023-08-06T10:23:56;19.30;1.00
1377;DHT22;682;52.502;13.488;2023-08-06T10:26:27;19.20;1.00
1377;DHT22;682;52.502;13.488;2023-08-06T10:28:54;19.20;1.00
1377;DHT22;682;52.502;13.488;2023-08-06T10:31:54;19.30;1.00
1377;DHT22;682;52.502;13.488;2023-08-06T10:34:21;19.30;1.00
1377;DHT22;682;52.502;13.488;2023-08-06T10:36:48;19.30;1.00
1377;DHT22;682;52.502;13.488;2023-08-06T10:39:15;19.40;1.00
1377;DHT22;682;52.502;13.488;2023-08-06T10:41:44;19.40;1.00
1377;DHT22;682;52.502;13.488;2023-08-06T10:44:11;19.40;1.00
1377;DHT22;682;52.502;13.488;2023-08-06T10:46:38;19.40;1.00
1377;DHT22;682;52.502;13.488;2023-08-06T10:49:05;19.30;1.00
1377;DHT22;682;52.502;13.488;2023-08-06T10:51:33;19.30;1.00
1377;DHT22;682;52.502;13.488;2023-08-06T10:54:00;19.30;1.00
1377;DHT22;682;52.502;13.488;2023-08-06T10:56:27;19.40;1.00
1377;DHT22;682;52.502;13.488;2023-08-06T10:58:57;19.50;1.00
1377;DHT22;682;52.502;13.488;2023-08-06T11:01:28;19.40;1.00
1377;DHT22;682;52.502;13.488;2023-08-06T11:04:00;19.60;1.00
1377;DHT22;682;52.502;13.488;2023-08-06T11:06:29;19.70;1.00
1377;DHT22;682;52.502;13.488;2023-08-06T11:08:56;19.80;1.00
1377;DHT22;682;52.502;13.488;2023-08-06T11:11:26;19.90;1.00
1377;DHT22;682;52.502;13.488;2023-08-06T11:13:56;19.90;1.00
1377;DHT22;682;52.502;13.488;2023-08-06T11:16:23;20.00;1.00
1377;DHT22;682;52.502;13.488;2023-08-06T11:18:51;20.10;1.00
1377;DHT22;682;52.502;13.488;2023-08-06T11:21:19;20.10;1.00
1377;DHT22;682;52.502;13.488;2023-08-06T11:23:46;20.10;1.00
1377;DHT22;682;52.502;13.488;2023-08-06T11:26:18;20.20;1.00
1377;DHT22;682;52.502;13.488;2023-08-06T11:28:45;20.10;1.00
1377;DHT22;682;52.502;13.488;2023-08-06T11:31:20;20.10;1.00
1377;DHT22;682;52.502;13.488;2023-08-06T11:33:47;20.10;1.00
1377;DHT22;682;52.502;13.488;2023-08-06T11:36:14;20.10;1.00
1377;DHT22;682;52.502;13.488;2023-08-06T11:38:41;20.20;1.00
1377;DHT22;682;52.502;13.488;2023-08-06T11:41:08;20.30;1.00
1377;DHT22;682;52.502;13.488;2023-08-06T11:43:35;20.30;1.00
1377;DHT22;682;52.502;13.488;2023-08-06T11:46:02;20.50;1.00
1377;DHT22;682;52.502;13.488;2023-08-06T11:48:30;20.50;1.00
1377;DHT22;682;52.502;13.488;2023-08-06T11:50:57;20.50;1.00
1377;DHT22;682;52.502;13.488;2023-08-06T11:53:27;20.50;1.00
1377;DHT22;682;52.502;13.488;2023-08-06T11:55:55;20.50;1.00
1377;DHT22;682;52.502;13.488;2023-08-06T11:58:22;20.50;1.00
1377;DHT22;682;52.502;13.488;2023-08-06T12:00:49;20.60;1.00
1377;DHT22;682;52.502;13.488;2023-08-06T12:03:19;20.60;1.00
1377;DHT22;682;52.502;13.488;2023-08-06T12:05:47;20.60;1.00
1377;DHT22;682;52.502;13.488;2023-08-06T12:08:14;20.60;1.00
1377;DHT22;682;52.502;13.488;2023-08-06T12:10:41;20.70;1.00
1377;DHT22;682;52.502;13.488;2023-08-06T12:13:08;20.70;1.00
1377;DHT22;682;52.502;13.488;2023-08-06T12:15:36;20.70;1.00
1377;DHT22;682;52.502;13.488;2023-08-06T12:18:03;20.60;1.00
1377;DHT22;682;52.502;13.488;2023-08-06T12:20:31;20.70;1.00
1377;DHT22;682;52.502;13.488;2023-08-06T12:23:00;20.60;1.00
1377;DHT22;682;52.502;13.488;2023-08-06T12:25:27;20.70;1.00
1377;DHT22;682;52.502;13.488;2023-08-06T12:27:53;20.70;1.00
1377;DHT22;682;52.502;13.488;2023-08-06T12:30:20;20.70;1.00
1377;DHT22;682;52.502;13.488;2023-08-06T12:32:50;20.60;1.00
1377;DHT22;682;52.502;13.488;2023-08-06T12:35:17;20.60;1.00
1377;DHT22;682;52.502;13.488;2023-08-06T12:37:45;20.60;1.00
1377;DHT22;682;52.502;13.488;2023-08-06T12:40:14;20.50;1.00
1377;DHT22;682;52.502;13.488;2023-08-06T12:42:41;20.50;1.00
1377;DHT22;682;52.502;13.488;2023-08-06T12:45:08;20.40;1.00
1377;DHT22;682;52.502;13.488;2023-08-06T12:47:35;20.40;1.00
1377;DHT22;682;52.502;13.488;2023-08-06T12:50:02;20.50;1.00
1377;DHT22;682;52.502;13.488;2023-08-06T12:52:29;20.60;1.00
1377;DHT22;682;52.502;13.488;2023-08-06T12:54:59;20.60;1.00
1377;DHT22;682;52.502;13.488;2023-08-06T12:57:27;20.60;1.00
1377;DHT22;682;52.502;13.488;2023-08-06T12:59:55;20.60;1.00
1377;DHT22;682;52.502;13.488;2023-08-06T13:02:25;20.50;1.00
1377;DHT22;682;52.502;13.488;2023-08-06T13:04:55;20.40;1.00
1377;DHT22;682;52.502;13.488;2023-08-06T13:07:22;20.30;1.00
1377;DHT22;682;52.502;13.488;2023-08-06T13:09:53;20.20;1.00
1377;DHT22;682;52.502;13.488;2023-08-06T13:12:20;20.20;1.00
1377;DHT22;682;52.502;13.488;2023-08-06T13:14:50;20.10;1.00
1377;DHT22;682;52.502;13.488;2023-08-06T13:17:18;20.00;1.00
1377;DHT22;682;52.502;13.488;2023-08-06T13:19:45;20.00;1.00
1377;DHT22;682;52.502;13.488;2023-08-06T13:22:12;20.00;1.00
1377;DHT22;682;52.502;13.488;2023-08-06T13:24:39;19.90;1.00
1377;DHT22;682;52.502;13.488;2023-08-06T13:27:06;19.90;1.00
1377;DHT22;682;52.502;13.488;2023-08-06T13:29:35;20.00;1.00
1377;DHT22;682;52.502;13.488;2023-08-06T13:32:04;20.00;1.00
1377;DHT22;682;52.502;13.488;2023-08-06T13:34:31;20.10;1.00
1377;DHT22;682;52.502;13.488;2023-08-06T13:36:58;20.10;1.00
1377;DHT22;682;52.502;13.488;2023-08-06T13:39:25;20.00;1.00
1377;DHT22;682;52.502;13.488;2023-08-06T13:41:52;20.00;1.00
1377;DHT22;682;52.502;13.488;2023-08-06T13:44:19;20.00;1.00
1377;DHT22;682;52.502;13.488;2023-08-06T13:46:46;19.90;1.00
1377;DHT22;682;52.502;13.488;2023-08-06T13:49:14;19.90;1.00
1377;DHT22;682;52.502;13.488;2023-08-06T13:51:41;19.90;1.00
1377;DHT22;682;52.502;13.488;2023-08-06T13:54:08;19.90;1.00
1377;DHT22;682;52.502;13.488;2023-08-06T13:56:35;19.90;1.00
1377;DHT22;682;52.502;13.488;2023-08-06T13:59:03;19.90;1.00
1377;DHT22;682;52.502;13.488;2023-08-06T14:01:31;19.80;1.00
1377;DHT22;682;52.502;13.488;2023-08-06T14:03:58;19.90;1.00
1377;DHT22;682;52.502;13.488;2023-08-06T14:06:26;19.80;1.00
1377;DHT22;682;52.502;13.488;2023-08-06T14:08:53;19.80;1.00
1377;DHT22;682;52.502;13.488;2023-08-06T14:11:20;19.80;1.00
1377;DHT22;682;52.502;13.488;2023-08-06T14:13:47;19.80;1.00
1377;DHT22;682;52.502;13.488;2023-08-06T14:16:15;19.70;1.00
1377;DHT22;682;52.502;13.488;2023-08-06T14:18:41;19.70;1.00
1377;DHT22;682;52.502;13.488;2023-08-06T14:21:09;19.70;1.00
1377;DHT22;682;52.502;13.488;2023-08-06T14:23:37;19.60;1.00
1377;DHT22;682;52.502;13.488;2023-08-06T14:26:04;19.50;1.00
1377;DHT22;682;52.502;13.488;2023-08-06T14:28:31;19.60;1.00
1377;DHT22;682;52.502;13.488;2023-08-06T14:30:58;19.50;1.00
1377;DHT22;682;52.502;13.488;2023-08-06T14:33:25;19.50;1.00
1377;DHT22;682;52.502;13.488;2023-08-06T14:35:51;19.40;1.00
1377;DHT22;682;52.502;13.488;2023-08-06T14:38:18;19.40;1.00
1377;DHT22;682;52.502;13.488;2023-08-06T14:40:47;19.30;1.00
1377;DHT22;682;52.502;13.488;2023-08-06T14:43:14;19.30;1.00
1377;DHT22;682;52.502;13.488;2023-08-06T14:45:41;19.30;1.00
1377;DHT22;682;52.502;13.488;2023-08-06T14:48:08;19.30;1.00
1377;DHT22;682;52.502;13.488;2023-08-06T14:50:35;19.20;1.00
1377;DHT22;682;52.502;13.488;2023-08-06T14:53:05;19.10;1.00
1377;DHT22;682;52.502;13.488;2023-08-06T14:55:32;19.10;1.00
1377;DHT22;682;52.502;13.488;2023-08-06T14:58:01;19.00;1.00
1377;DHT22;682;52.502;13.488;2023-08-06T15:00:28;18.90;1.00
1377;DHT22;682;52.502;13.488;2023-08-06T15:02:55;18.90;1.00
1377;DHT22;682;52.502;13.488;2023-08-06T15:05:22;18.90;1.00
1377;DHT22;682;52.502;13.488;2023-08-06T15:07:49;18.90;1.00
1377;DHT22;682;52.502;13.488;2023-08-06T15:10:18;18.90;1.00
1377;DHT22;682;52.502;13.488;2023-08-06T15:12:45;18.80;1.00
1377;DHT22;682;52.502;13.488;2023-08-06T15:15:14;18.70;1.00
1377;DHT22;682;52.502;13.488;2023-08-06T15:17:41;18.70;1.00
1377;DHT22;682;52.502;13.488;2023-08-06T15:20:09;18.60;1.00
1377;DHT22;682;52.502;13.488;2023-08-06T15:22:36;18.60;1.00
1377;DHT22;682;52.502;13.488;2023-08-06T15:25:04;18.60;1.00
1377;DHT22;682;52.502;13.488;2023-08-06T15:27:31;18.50;1.00
1377;DHT22;682;52.502;13.488;2023-08-06T15:29:59;18.50;1.00
1377;DHT22;682;52.502;13.488;2023-08-06T15:32:27;18.50;1.00
1377;DHT22;682;52.502;13.488;2023-08-06T15:34:54;18.40;1.00
1377;DHT22;682;52.502;13.488;2023-08-06T15:37:22;18.40;1.00
1377;DHT22;682;52.502;13.488;2023-08-06T15:39:49;18.50;1.00
1377;DHT22;682;52.502;13.488;2023-08-06T15:42:16;18.50;1.00
1377;DHT22;682;52.502;13.488;2023-08-06T15:44:44;18.50;1.00
1377;DHT22;682;52.502;13.488;2023-08-06T15:47:11;18.50;1.00
1377;DHT22;682;52.502;13.488;2023-08-06T15:49:42;18.50;1.00
1377;DHT22;682;52.502;13.488;2023-08-06T15:52:09;18.50;1.00
1377;DHT22;682;52.502;13.488;2023-08-06T15:54:36;18.50;1.00
1377;DHT22;682;52.502;13.488;2023-08-06T15:57:03;18.50;1.00
1377;DHT22;682;52.502;13.488;2023-08-06T15:59:31;18.50;1.00
1377;DHT22;682;52.502;13.488;2023-08-06T16:01:59;18.50;1.00
1377;DHT22;682;52.502;13.488;2023-08-06T16:04:29;18.60;1.00
1377;DHT22;682;52.502;13.488;2023-08-06T16:06:58;18.60;1.00
1377;DHT22;682;52.502;13.488;2023-08-06T16:09:25;18.60;1.00
1377;DHT22;682;52.502;13.488;2023-08-06T16:11:53;18.60;1.00
1377;DHT22;682;52.502;13.488;2023-08-06T16:14:20;18.60;1.00
1377;DHT22;682;52.502;13.488;2023-08-06T16:16:47;18.60;1.00
1377;DHT22;682;52.502;13.488;2023-08-06T16:19:14;18.50;1.00
1377;DHT22;682;52.502;13.488;2023-08-06T16:21:41;18.50;1.00